This is the latest recevied weather packets stored in our database for station/object DG1UDO-13. If no packets are shown the sender has not sent any weather packets the latest 10 day(s).
| Time | Temp. | Humidity | Pressure | Rain* | Wind** | Luminosity | Snow |
|---|---|---|---|---|---|---|---|
| 1777194301 | 10.56° C | 64% | 1026.7 hPa | - | - | - | - |
| 1777192501 | 10° C | 66% | 1026.8 hPa | - | - | - | - |
| 1777190701 | 10° C | 72% | 1026.4 hPa | - | - | - | - |
| 1777188901 | 7.78° C | 79% | 1026.4 hPa | - | - | - | - |
| 1777187101 | 7.22° C | 86% | 1025.7 hPa | - | - | - | - |
| 1777185300 | 5.56° C | 91% | 1025.7 hPa | - | - | - | - |
| 1777183500 | 4.44° C | 93% | 1025.2 hPa | - | - | - | - |
| 1777181701 | 3.33° C | 95% | 1025.1 hPa | - | - | - | - |
| 1777179900 | 2.78° C | 96% | 1024.7 hPa | - | - | - | - |
| 1777178101 | 2.22° C | 95% | 1024.4 hPa | - | - | - | - |
| 1777176301 | 2.78° C | 94% | 1023.9 hPa | - | - | - | - |
| 1777174500 | 2.78° C | 93% | 1023.9 hPa | - | - | - | - |
| 1777172700 | 2.78° C | 92% | 1023.5 hPa | - | - | - | - |
| 1777170901 | 3.33° C | 91% | 1023.2 hPa | - | - | - | - |
| 1777169100 | 3.33° C | 90% | 1022.8 hPa | - | - | - | - |
| 1777167301 | 3.89° C | 87% | 1022.5 hPa | - | - | - | - |
| 1777165501 | 4.44° C | 85% | 1022 hPa | - | - | - | - |
| 1777163701 | 4.44° C | 85% | 1021.7 hPa | - | - | - | - |
| 1777161900 | 4.44° C | 83% | 1021.4 hPa | - | - | - | - |
| 1777160101 | 5° C | 81% | 1021.2 hPa | - | - | - | - |
| 1777158301 | 5° C | 81% | 1021.1 hPa | - | - | - | - |
| 1777156500 | 5.56° C | 81% | 1020.8 hPa | - | - | - | - |
| 1777154701 | 5.56° C | 84% | 1020.4 hPa | - | - | - | - |
| 1777152901 | 5.56° C | 86% | 1020.3 hPa | - | - | - | - |
| 1777151100 | 6.11° C | 85% | 1020 hPa | - | - | - | - |
* Rain since midnight (hover to see other rain measurements)
** Current wind speed in m/s (hover to see current wind gust speed)